sensor_id;sensor_type;location;lat;lon;timestamp;temperature;humidity
9802;DHT22;4940;50.900;4.672;2023-06-26T00:00:32;25.00;93.90
9802;DHT22;4940;50.900;4.672;2023-06-26T00:03:00;25.00;93.80
9802;DHT22;4940;50.900;4.672;2023-06-26T00:05:27;24.90;93.90
9802;DHT22;4940;50.900;4.672;2023-06-26T00:07:56;24.90;94.20
9802;DHT22;4940;50.900;4.672;2023-06-26T00:10:26;24.80;94.10
9802;DHT22;4940;50.900;4.672;2023-06-26T00:12:53;24.70;94.20
9802;DHT22;4940;50.900;4.672;2023-06-26T00:15:21;24.70;94.30
9802;DHT22;4940;50.900;4.672;2023-06-26T00:17:49;24.60;94.30
9802;DHT22;4940;50.900;4.672;2023-06-26T00:20:16;20.40;92.40
9802;DHT22;4940;50.900;4.672;2023-06-26T00:22:44;24.60;94.50
9802;DHT22;4940;50.900;4.672;2023-06-26T00:25:12;24.50;94.70
9802;DHT22;4940;50.900;4.672;2023-06-26T00:27:39;22.30;93.60
9802;DHT22;4940;50.900;4.672;2023-06-26T00:30:07;24.40;94.50
9802;DHT22;4940;50.900;4.672;2023-06-26T00:32:34;24.30;94.40
9802;DHT22;4940;50.900;4.672;2023-06-26T00:35:03;24.30;94.60
9802;DHT22;4940;50.900;4.672;2023-06-26T00:37:30;24.10;94.80
9802;DHT22;4940;50.900;4.672;2023-06-26T00:39:58;24.20;94.70
9802;DHT22;4940;50.900;4.672;2023-06-26T00:42:25;24.20;94.70
9802;DHT22;4940;50.900;4.672;2023-06-26T00:44:52;24.20;94.90
9802;DHT22;4940;50.900;4.672;2023-06-26T00:47:20;24.10;95.00
9802;DHT22;4940;50.900;4.672;2023-06-26T00:49:47;24.10;95.20
9802;DHT22;4940;50.900;4.672;2023-06-26T00:52:16;24.10;95.40
9802;DHT22;4940;50.900;4.672;2023-06-26T00:54:43;24.00;95.60
9802;DHT22;4940;50.900;4.672;2023-06-26T00:57:11;23.90;94.90
9802;DHT22;4940;50.900;4.672;2023-06-26T00:59:38;23.90;94.60
9802;DHT22;4940;50.900;4.672;2023-06-26T01:02:06;23.90;94.80
9802;DHT22;4940;50.900;4.672;2023-06-26T01:04:33;23.80;94.40
9802;DHT22;4940;50.900;4.672;2023-06-26T01:07:02;23.80;94.20
9802;DHT22;4940;50.900;4.672;2023-06-26T01:09:31;23.70;94.00
9802;DHT22;4940;50.900;4.672;2023-06-26T01:11:58;23.70;93.80
9802;DHT22;4940;50.900;4.672;2023-06-26T01:14:26;23.60;93.60
9802;DHT22;4940;50.900;4.672;2023-06-26T01:16:53;23.50;93.50
9802;DHT22;4940;50.900;4.672;2023-06-26T01:19:24;23.40;93.50
9802;DHT22;4940;50.900;4.672;2023-06-26T01:21:59;23.40;93.50
9802;DHT22;4940;50.900;4.672;2023-06-26T01:24:34;23.30;93.60
9802;DHT22;4940;50.900;4.672;2023-06-26T01:27:05;23.30;93.60
9802;DHT22;4940;50.900;4.672;2023-06-26T01:29:35;23.30;93.90
9802;DHT22;4940;50.900;4.672;2023-06-26T01:32:03;23.20;93.90
9802;DHT22;4940;50.900;4.672;2023-06-26T01:34:31;23.20;94.00
9802;DHT22;4940;50.900;4.672;2023-06-26T01:36:58;23.10;94.10
9802;DHT22;4940;50.900;4.672;2023-06-26T01:39:26;23.10;94.20
9802;DHT22;4940;50.900;4.672;2023-06-26T01:41:53;23.00;94.60
9802;DHT22;4940;50.900;4.672;2023-06-26T01:44:28;23.00;94.60
9802;DHT22;4940;50.900;4.672;2023-06-26T01:47:00;22.90;94.70
9802;DHT22;4940;50.900;4.672;2023-06-26T01:49:37;22.90;94.90
9802;DHT22;4940;50.900;4.672;2023-06-26T01:52:08;22.90;95.20
9802;DHT22;4940;50.900;4.672;2023-06-26T01:54:53;22.80;95.10
9802;DHT22;4940;50.900;4.672;2023-06-26T01:57:21;22.80;95.30
9802;DHT22;4940;50.900;4.672;2023-06-26T01:59:53;22.80;95.40
9802;DHT22;4940;50.900;4.672;2023-06-26T02:02:23;22.70;95.50
9802;DHT22;4940;50.900;4.672;2023-06-26T02:04:50;22.70;95.40
9802;DHT22;4940;50.900;4.672;2023-06-26T02:07:18;22.70;95.50
9802;DHT22;4940;50.900;4.672;2023-06-26T02:09:45;22.70;95.70
9802;DHT22;4940;50.900;4.672;2023-06-26T02:12:13;22.70;96.00
9802;DHT22;4940;50.900;4.672;2023-06-26T02:17:09;22.50;96.00
9802;DHT22;4940;50.900;4.672;2023-06-26T02:19:36;22.60;96.30
9802;DHT22;4940;50.900;4.672;2023-06-26T02:22:11;22.50;96.20
9802;DHT22;4940;50.900;4.672;2023-06-26T02:24:38;22.40;96.30
9802;DHT22;4940;50.900;4.672;2023-06-26T02:27:05;22.40;96.60
9802;DHT22;4940;50.900;4.672;2023-06-26T02:29:33;22.40;96.60
9802;DHT22;4940;50.900;4.672;2023-06-26T02:32:00;22.40;96.90
9802;DHT22;4940;50.900;4.672;2023-06-26T02:34:29;22.40;97.20
9802;DHT22;4940;50.900;4.672;2023-06-26T02:36:57;22.30;96.90
9802;DHT22;4940;50.900;4.672;2023-06-26T02:39:24;22.30;97.20
9802;DHT22;4940;50.900;4.672;2023-06-26T02:41:52;22.20;97.20
9802;DHT22;4940;50.900;4.672;2023-06-26T02:44:19;22.20;97.40
9802;DHT22;4940;50.900;4.672;2023-06-26T02:46:47;22.20;97.70
9802;DHT22;4940;50.900;4.672;2023-06-26T02:49:14;22.10;97.90
9802;DHT22;4940;50.900;4.672;2023-06-26T02:51:43;22.00;97.90
9802;DHT22;4940;50.900;4.672;2023-06-26T02:54:10;21.90;98.10
9802;DHT22;4940;50.900;4.672;2023-06-26T02:56:37;22.00;98.50
9802;DHT22;4940;50.900;4.672;2023-06-26T02:59:05;21.90;98.60
9802;DHT22;4940;50.900;4.672;2023-06-26T03:01:32;21.90;99.00
9802;DHT22;4940;50.900;4.672;2023-06-26T03:04:00;21.80;99.40
9802;DHT22;4940;50.900;4.672;2023-06-26T03:06:27;21.80;99.50
9802;DHT22;4940;50.900;4.672;2023-06-26T03:08:56;21.80;99.60
9802;DHT22;4940;50.900;4.672;2023-06-26T03:11:23;21.90;99.90
9802;DHT22;4940;50.900;4.672;2023-06-26T03:13:50;21.80;99.90
9802;DHT22;4940;50.900;4.672;2023-06-26T03:16:18;21.80;99.90
9802;DHT22;4940;50.900;4.672;2023-06-26T03:18:45;21.80;99.90
9802;DHT22;4940;50.900;4.672;2023-06-26T03:21:12;21.70;99.90
9802;DHT22;4940;50.900;4.672;2023-06-26T03:23:39;21.70;99.90
9802;DHT22;4940;50.900;4.672;2023-06-26T03:26:08;21.70;99.90
9802;DHT22;4940;50.900;4.672;2023-06-26T03:28:35;21.70;99.90
9802;DHT22;4940;50.900;4.672;2023-06-26T03:31:03;21.70;99.90
9802;DHT22;4940;50.900;4.672;2023-06-26T03:33:30;21.60;99.90
9802;DHT22;4940;50.900;4.672;2023-06-26T03:35:57;21.60;99.90
9802;DHT22;4940;50.900;4.672;2023-06-26T03:38:25;21.50;99.90
9802;DHT22;4940;50.900;4.672;2023-06-26T03:40:52;21.50;99.90
9802;DHT22;4940;50.900;4.672;2023-06-26T03:43:21;21.40;99.90
9802;DHT22;4940;50.900;4.672;2023-06-26T03:48:16;21.20;99.90
9802;DHT22;4940;50.900;4.672;2023-06-26T03:50:43;21.20;99.90
9802;DHT22;4940;50.900;4.672;2023-06-26T03:53:11;21.10;99.90
9802;DHT22;4940;50.900;4.672;2023-06-26T03:55:38;21.00;99.90
9802;DHT22;4940;50.900;4.672;2023-06-26T03:58:05;21.00;99.90
9802;DHT22;4940;50.900;4.672;2023-06-26T04:00:34;21.00;99.90
9802;DHT22;4940;50.900;4.672;2023-06-26T04:05:30;20.90;99.90
9802;DHT22;4940;50.900;4.672;2023-06-26T04:07:57;20.90;99.90
9802;DHT22;4940;50.900;4.672;2023-06-26T04:10:24;20.80;99.90
9802;DHT22;4940;50.900;4.672;2023-06-26T04:15:19;20.80;99.90
9802;DHT22;4940;50.900;4.672;2023-06-26T04:17:48;20.80;99.90
9802;DHT22;4940;50.900;4.672;2023-06-26T04:20:15;20.70;99.90
9802;DHT22;4940;50.900;4.672;2023-06-26T04:22:43;20.70;99.90
9802;DHT22;4940;50.900;4.672;2023-06-26T04:25:10;20.80;99.90
9802;DHT22;4940;50.900;4.672;2023-06-26T04:27:38;20.70;99.90
9802;DHT22;4940;50.900;4.672;2023-06-26T04:30:06;20.70;99.90
9802;DHT22;4940;50.900;4.672;2023-06-26T04:32:34;20.70;99.90
9802;DHT22;4940;50.900;4.672;2023-06-26T04:35:02;20.70;99.90
9802;DHT22;4940;50.900;4.672;2023-06-26T04:37:30;20.70;99.90
9802;DHT22;4940;50.900;4.672;2023-06-26T04:44:52;20.70;99.90
9802;DHT22;4940;50.900;4.672;2023-06-26T04:47:20;20.70;99.90
9802;DHT22;4940;50.900;4.672;2023-06-26T04:49:47;20.70;99.90
9802;DHT22;4940;50.900;4.672;2023-06-26T04:52:16;20.80;99.90
9802;DHT22;4940;50.900;4.672;2023-06-26T04:54:43;20.80;99.90
9802;DHT22;4940;50.900;4.672;2023-06-26T04:57:11;20.90;99.90
9802;DHT22;4940;50.900;4.672;2023-06-26T04:59:38;20.80;99.90
9802;DHT22;4940;50.900;4.672;2023-06-26T05:02:06;20.80;99.90
9802;DHT22;4940;50.900;4.672;2023-06-26T05:04:33;20.80;99.90
9802;DHT22;4940;50.900;4.672;2023-06-26T05:07:00;20.70;99.90
9802;DHT22;4940;50.900;4.672;2023-06-26T05:09:29;20.70;99.90
9802;DHT22;4940;50.900;4.672;2023-06-26T05:11:56;20.70;99.90
9802;DHT22;4940;50.900;4.672;2023-06-26T05:14:24;20.60;99.90
9802;DHT22;4940;50.900;4.672;2023-06-26T05:16:51;20.60;99.90
9802;DHT22;4940;50.900;4.672;2023-06-26T05:19:19;20.60;99.90
9802;DHT22;4940;50.900;4.672;2023-06-26T05:21:46;20.60;99.90
9802;DHT22;4940;50.900;4.672;2023-06-26T05:24:16;20.50;99.90
9802;DHT22;4940;50.900;4.672;2023-06-26T05:26:45;20.60;99.90
9802;DHT22;4940;50.900;4.672;2023-06-26T05:29:12;20.60;99.90
9802;DHT22;4940;50.900;4.672;2023-06-26T05:31:41;20.60;99.90
9802;DHT22;4940;50.900;4.672;2023-06-26T05:34:10;20.70;99.90
9802;DHT22;4940;50.900;4.672;2023-06-26T05:36:39;20.70;99.90
9802;DHT22;4940;50.900;4.672;2023-06-26T05:39:08;20.70;99.90
9802;DHT22;4940;50.900;4.672;2023-06-26T05:41:36;20.70;99.90
9802;DHT22;4940;50.900;4.672;2023-06-26T05:44:04;20.80;99.90
9802;DHT22;4940;50.900;4.672;2023-06-26T05:46:32;20.80;99.90
9802;DHT22;4940;50.900;4.672;2023-06-26T05:48:59;21.00;99.90
9802;DHT22;4940;50.900;4.672;2023-06-26T05:51:27;21.10;99.90
9802;DHT22;4940;50.900;4.672;2023-06-26T05:53:55;21.30;99.90
9802;DHT22;4940;50.900;4.672;2023-06-26T05:56:23;21.50;99.90
9802;DHT22;4940;50.900;4.672;2023-06-26T05:58:51;21.60;99.90
9802;DHT22;4940;50.900;4.672;2023-06-26T06:01:20;21.70;99.90
9802;DHT22;4940;50.900;4.672;2023-06-26T06:08:42;22.10;99.90
9802;DHT22;4940;50.900;4.672;2023-06-26T06:11:09;22.20;99.90
9802;DHT22;4940;50.900;4.672;2023-06-26T06:16:04;22.40;99.90
9802;DHT22;4940;50.900;4.672;2023-06-26T06:18:36;22.60;99.90
9802;DHT22;4940;50.900;4.672;2023-06-26T06:25:58;22.90;99.90
9802;DHT22;4940;50.900;4.672;2023-06-26T06:28:25;23.10;99.90
9802;DHT22;4940;50.900;4.672;2023-06-26T06:33:20;23.30;99.90
9802;DHT22;4940;50.900;4.672;2023-06-26T06:35:48;23.40;99.90
9802;DHT22;4940;50.900;4.672;2023-06-26T06:38:15;23.40;99.90
9802;DHT22;4940;50.900;4.672;2023-06-26T06:40:43;23.50;99.90
9802;DHT22;4940;50.900;4.672;2023-06-26T06:43:10;23.60;99.90
9802;DHT22;4940;50.900;4.672;2023-06-26T06:45:37;23.70;99.70
9802;DHT22;4940;50.900;4.672;2023-06-26T06:48:05;23.80;99.80
9802;DHT22;4940;50.900;4.672;2023-06-26T06:50:32;23.90;99.50
9802;DHT22;4940;50.900;4.672;2023-06-26T06:55:29;24.20;99.10
9802;DHT22;4940;50.900;4.672;2023-06-26T06:57:56;24.40;98.90
9802;DHT22;4940;50.900;4.672;2023-06-26T07:00:24;24.60;98.50
9802;DHT22;4940;50.900;4.672;2023-06-26T07:02:51;24.80;98.10
9802;DHT22;4940;50.900;4.672;2023-06-26T07:05:18;24.90;97.60
9802;DHT22;4940;50.900;4.672;2023-06-26T07:07:46;25.00;97.60
9802;DHT22;4940;50.900;4.672;2023-06-26T07:10:15;25.40;96.80
9802;DHT22;4940;50.900;4.672;2023-06-26T07:12:42;25.60;96.70
9802;DHT22;4940;50.900;4.672;2023-06-26T07:15:10;25.80;96.90
9802;DHT22;4940;50.900;4.672;2023-06-26T07:17:37;26.20;96.20
9802;DHT22;4940;50.900;4.672;2023-06-26T07:20:06;26.50;95.40
9802;DHT22;4940;50.900;4.672;2023-06-26T07:22:34;27.20;95.10
9802;DHT22;4940;50.900;4.672;2023-06-26T07:25:01;27.10;93.80
9802;DHT22;4940;50.900;4.672;2023-06-26T07:27:31;27.20;93.60
9802;DHT22;4940;50.900;4.672;2023-06-26T07:29:59;27.40;93.40
9802;DHT22;4940;50.900;4.672;2023-06-26T07:32:26;27.60;92.80
9802;DHT22;4940;50.900;4.672;2023-06-26T07:34:53;27.90;92.60
9802;DHT22;4940;50.900;4.672;2023-06-26T07:37:21;28.30;91.90
9802;DHT22;4940;50.900;4.672;2023-06-26T07:39:49;28.50;91.60
9802;DHT22;4940;50.900;4.672;2023-06-26T07:42:16;28.50;91.50
9802;DHT22;4940;50.900;4.672;2023-06-26T07:44:45;28.90;91.10
9802;DHT22;4940;50.900;4.672;2023-06-26T07:47:12;29.10;90.90
9802;DHT22;4940;50.900;4.672;2023-06-26T07:49:39;29.50;90.30
9802;DHT22;4940;50.900;4.672;2023-06-26T07:52:07;29.70;90.00
9802;DHT22;4940;50.900;4.672;2023-06-26T07:54:36;29.90;89.40
9802;DHT22;4940;50.900;4.672;2023-06-26T07:57:05;30.30;88.70
9802;DHT22;4940;50.900;4.672;2023-06-26T07:59:34;30.50;88.10
9802;DHT22;4940;50.900;4.672;2023-06-26T08:02:03;30.50;87.40
9802;DHT22;4940;50.900;4.672;2023-06-26T08:04:31;31.10;85.80
9802;DHT22;4940;50.900;4.672;2023-06-26T08:07:00;31.40;84.90
9802;DHT22;4940;50.900;4.672;2023-06-26T08:09:29;31.60;84.60
9802;DHT22;4940;50.900;4.672;2023-06-26T08:11:57;31.80;83.60
9802;DHT22;4940;50.900;4.672;2023-06-26T08:14:24;31.90;81.90
9802;DHT22;4940;50.900;4.672;2023-06-26T08:16:52;32.00;81.40
9802;DHT22;4940;50.900;4.672;2023-06-26T08:19:21;32.10;79.90
9802;DHT22;4940;50.900;4.672;2023-06-26T08:21:48;32.20;80.30
9802;DHT22;4940;50.900;4.672;2023-06-26T08:24:16;32.30;80.30
9802;DHT22;4940;50.900;4.672;2023-06-26T08:26:45;32.70;78.20
9802;DHT22;4940;50.900;4.672;2023-06-26T08:31:40;33.10;76.50
9802;DHT22;4940;50.900;4.672;2023-06-26T08:34:07;33.20;76.10
9802;DHT22;4940;50.900;4.672;2023-06-26T08:36:36;33.50;76.50
9802;DHT22;4940;50.900;4.672;2023-06-26T08:39:04;33.90;77.10
9802;DHT22;4940;50.900;4.672;2023-06-26T08:41:32;33.50;75.60
9802;DHT22;4940;50.900;4.672;2023-06-26T08:43:59;33.10;74.70
9802;DHT22;4940;50.900;4.672;2023-06-26T08:46:28;32.80;74.60
9802;DHT22;4940;50.900;4.672;2023-06-26T08:48:56;32.70;74.40
9802;DHT22;4940;50.900;4.672;2023-06-26T08:51:25;32.70;76.60
9802;DHT22;4940;50.900;4.672;2023-06-26T08:53:58;32.80;76.40
9802;DHT22;4940;50.900;4.672;2023-06-26T08:56:28;32.90;76.60
9802;DHT22;4940;50.900;4.672;2023-06-26T08:58:58;33.00;76.30
9802;DHT22;4940;50.900;4.672;2023-06-26T09:01:25;33.20;75.00
9802;DHT22;4940;50.900;4.672;2023-06-26T09:03:52;33.30;74.90
9802;DHT22;4940;50.900;4.672;2023-06-26T09:06:20;33.20;73.50
9802;DHT22;4940;50.900;4.672;2023-06-26T09:08:47;33.40;73.50
9802;DHT22;4940;50.900;4.672;2023-06-26T09:11:16;33.00;71.60
9802;DHT22;4940;50.900;4.672;2023-06-26T09:13:43;33.30;72.20
9802;DHT22;4940;50.900;4.672;2023-06-26T09:16:11;33.20;72.40
9802;DHT22;4940;50.900;4.672;2023-06-26T09:18:40;33.20;71.90
9802;DHT22;4940;50.900;4.672;2023-06-26T09:21:08;33.00;70.90
9802;DHT22;4940;50.900;4.672;2023-06-26T09:23:36;33.00;71.60
9802;DHT22;4940;50.900;4.672;2023-06-26T09:26:04;33.10;72.10
9802;DHT22;4940;50.900;4.672;2023-06-26T09:28:35;33.30;72.00
9802;DHT22;4940;50.900;4.672;2023-06-26T09:31:03;33.30;70.70
9802;DHT22;4940;50.900;4.672;2023-06-26T09:33:34;33.20;70.40
9802;DHT22;4940;50.900;4.672;2023-06-26T09:36:05;32.80;70.30
9802;DHT22;4940;50.900;4.672;2023-06-26T09:38:34;32.50;71.70
9802;DHT22;4940;50.900;4.672;2023-06-26T09:41:01;32.50;71.40
9802;DHT22;4940;50.900;4.672;2023-06-26T09:43:28;32.30;73.00
9802;DHT22;4940;50.900;4.672;2023-06-26T09:45:58;32.10;72.00
9802;DHT22;4940;50.900;4.672;2023-06-26T09:48:26;31.80;70.80
9802;DHT22;4940;50.900;4.672;2023-06-26T09:50:54;31.50;71.30
9802;DHT22;4940;50.900;4.672;2023-06-26T09:53:22;31.70;72.50
9802;DHT22;4940;50.900;4.672;2023-06-26T09:55:49;31.70;72.30
9802;DHT22;4940;50.900;4.672;2023-06-26T09:58:16;35.70;75.00
9802;DHT22;4940;50.900;4.672;2023-06-26T10:00:44;32.10;71.50
9802;DHT22;4940;50.900;4.672;2023-06-26T10:03:13;28.10;67.10
9802;DHT22;4940;50.900;4.672;2023-06-26T10:05:41;32.30;70.20
9802;DHT22;4940;50.900;4.672;2023-06-26T10:08:10;32.50;71.00
9802;DHT22;4940;50.900;4.672;2023-06-26T10:10:40;32.70;70.80
9802;DHT22;4940;50.900;4.672;2023-06-26T10:13:11;32.90;70.90
9802;DHT22;4940;50.900;4.672;2023-06-26T10:15:40;32.90;67.40
9802;DHT22;4940;50.900;4.672;2023-06-26T10:18:09;32.80;66.00
9802;DHT22;4940;50.900;4.672;2023-06-26T10:20:39;32.80;63.60
9802;DHT22;4940;50.900;4.672;2023-06-26T10:23:08;32.60;63.90
9802;DHT22;4940;50.900;4.672;2023-06-26T10:25:38;32.00;64.70
9802;DHT22;4940;50.900;4.672;2023-06-26T10:28:08;31.90;64.30
9802;DHT22;4940;50.900;4.672;2023-06-26T10:30:37;31.70;64.90
9802;DHT22;4940;50.900;4.672;2023-06-26T10:33:07;31.70;64.80
9802;DHT22;4940;50.900;4.672;2023-06-26T10:35:42;31.70;65.50
9802;DHT22;4940;50.900;4.672;2023-06-26T10:38:10;31.90;65.60
9802;DHT22;4940;50.900;4.672;2023-06-26T10:40:42;31.50;65.10
9802;DHT22;4940;50.900;4.672;2023-06-26T10:43:11;31.50;65.40
9802;DHT22;4940;50.900;4.672;2023-06-26T10:45:43;31.40;66.40
9802;DHT22;4940;50.900;4.672;2023-06-26T10:48:14;28.80;63.30
9802;DHT22;4940;50.900;4.672;2023-06-26T10:50:42;31.10;64.80
9802;DHT22;4940;50.900;4.672;2023-06-26T10:53:12;30.90;65.00
9802;DHT22;4940;50.900;4.672;2023-06-26T10:55:49;30.80;65.70
9802;DHT22;4940;50.900;4.672;2023-06-26T10:58:28;30.70;65.80
9802;DHT22;4940;50.900;4.672;2023-06-26T11:01:13;30.80;66.60
9802;DHT22;4940;50.900;4.672;2023-06-26T11:03:42;30.80;66.20
9802;DHT22;4940;50.900;4.672;2023-06-26T11:06:13;30.80;66.40
9802;DHT22;4940;50.900;4.672;2023-06-26T11:08:47;30.70;67.00
9802;DHT22;4940;50.900;4.672;2023-06-26T11:11:14;30.80;66.90
9802;DHT22;4940;50.900;4.672;2023-06-26T11:13:44;30.90;67.10
9802;DHT22;4940;50.900;4.672;2023-06-26T11:16:11;31.20;68.10
9802;DHT22;4940;50.900;4.672;2023-06-26T11:18:39;31.20;68.00
9802;DHT22;4940;50.900;4.672;2023-06-26T11:21:07;31.20;65.40
9802;DHT22;4940;50.900;4.672;2023-06-26T11:23:36;31.00;66.00
9802;DHT22;4940;50.900;4.672;2023-06-26T11:26:14;30.60;66.00
9802;DHT22;4940;50.900;4.672;2023-06-26T11:28:47;30.30;67.50
9802;DHT22;4940;50.900;4.672;2023-06-26T11:31:27;30.50;67.20
9802;DHT22;4940;50.900;4.672;2023-06-26T11:33:56;30.60;67.40
9802;DHT22;4940;50.900;4.672;2023-06-26T11:36:24;28.00;66.00
9802;DHT22;4940;50.900;4.672;2023-06-26T11:38:58;31.10;67.00
9802;DHT22;4940;50.900;4.672;2023-06-26T11:41:26;31.30;65.50
9802;DHT22;4940;50.900;4.672;2023-06-26T11:43:54;31.60;64.20
9802;DHT22;4940;50.900;4.672;2023-06-26T11:46:22;31.60;63.00
9802;DHT22;4940;50.900;4.672;2023-06-26T11:48:49;31.50;62.30
9802;DHT22;4940;50.900;4.672;2023-06-26T11:51:18;31.50;61.50
9802;DHT22;4940;50.900;4.672;2023-06-26T11:53:46;30.50;61.20
9802;DHT22;4940;50.900;4.672;2023-06-26T11:56:15;31.10;62.30
9802;DHT22;4940;50.900;4.672;2023-06-26T11:58:56;30.60;62.20
9802;DHT22;4940;50.900;4.672;2023-06-26T12:01:24;30.60;63.90
9802;DHT22;4940;50.900;4.672;2023-06-26T12:03:57;30.40;63.80
9802;DHT22;4940;50.900;4.672;2023-06-26T12:06:25;30.20;64.90
9802;DHT22;4940;50.900;4.672;2023-06-26T12:08:53;30.60;65.70
9802;DHT22;4940;50.900;4.672;2023-06-26T12:11:23;30.00;66.10
9802;DHT22;4940;50.900;4.672;2023-06-26T12:13:51;30.10;66.30
9802;DHT22;4940;50.900;4.672;2023-06-26T12:16:19;30.10;65.10
9802;DHT22;4940;50.900;4.672;2023-06-26T12:18:47;30.00;64.70
9802;DHT22;4940;50.900;4.672;2023-06-26T12:21:46;30.20;65.40
9802;DHT22;4940;50.900;4.672;2023-06-26T12:24:15;29.50;64.60
9802;DHT22;4940;50.900;4.672;2023-06-26T12:26:45;29.30;65.00
9802;DHT22;4940;50.900;4.672;2023-06-26T12:29:14;29.30;65.60
9802;DHT22;4940;50.900;4.672;2023-06-26T12:31:44;29.10;66.60
9802;DHT22;4940;50.900;4.672;2023-06-26T12:34:13;29.10;66.60
9802;DHT22;4940;50.900;4.672;2023-06-26T12:36:43;29.20;66.80
9802;DHT22;4940;50.900;4.672;2023-06-26T12:39:12;29.10;67.10
9802;DHT22;4940;50.900;4.672;2023-06-26T12:41:48;29.40;67.60
9802;DHT22;4940;50.900;4.672;2023-06-26T12:44:19;29.30;68.00
9802;DHT22;4940;50.900;4.672;2023-06-26T12:46:47;29.30;66.20
9802;DHT22;4940;50.900;4.672;2023-06-26T12:49:15;29.30;65.80
9802;DHT22;4940;50.900;4.672;2023-06-26T12:51:42;30.90;65.80
9802;DHT22;4940;50.900;4.672;2023-06-26T12:54:10;29.20;64.80
9802;DHT22;4940;50.900;4.672;2023-06-26T12:56:37;28.90;63.80
9802;DHT22;4940;50.900;4.672;2023-06-26T12:59:06;29.20;64.40
9802;DHT22;4940;50.900;4.672;2023-06-26T13:01:33;28.90;64.00
9802;DHT22;4940;50.900;4.672;2023-06-26T13:04:00;28.80;63.90
9802;DHT22;4940;50.900;4.672;2023-06-26T13:06:28;28.40;63.40
9802;DHT22;4940;50.900;4.672;2023-06-26T13:08:55;28.70;64.70
9802;DHT22;4940;50.900;4.672;2023-06-26T13:11:22;28.60;66.10
9802;DHT22;4940;50.900;4.672;2023-06-26T13:13:50;28.60;66.30
9802;DHT22;4940;50.900;4.672;2023-06-26T13:16:19;28.60;66.20
9802;DHT22;4940;50.900;4.672;2023-06-26T13:18:46;28.50;65.50
9802;DHT22;4940;50.900;4.672;2023-06-26T13:21:14;28.40;65.30
9802;DHT22;4940;50.900;4.672;2023-06-26T13:23:42;28.30;65.50
9802;DHT22;4940;50.900;4.672;2023-06-26T13:26:09;28.20;65.90
9802;DHT22;4940;50.900;4.672;2023-06-26T13:28:37;28.30;66.20
9802;DHT22;4940;50.900;4.672;2023-06-26T13:31:05;28.40;67.30
9802;DHT22;4940;50.900;4.672;2023-06-26T13:33:33;28.30;66.60
9802;DHT22;4940;50.900;4.672;2023-06-26T13:36:01;28.40;66.10
9802;DHT22;4940;50.900;4.672;2023-06-26T13:40:58;28.30;66.50
9802;DHT22;4940;50.900;4.672;2023-06-26T13:43:26;28.20;66.70
9802;DHT22;4940;50.900;4.672;2023-06-26T13:45:54;28.20;66.40
9802;DHT22;4940;50.900;4.672;2023-06-26T13:48:22;28.20;68.10
9802;DHT22;4940;50.900;4.672;2023-06-26T13:50:51;28.20;67.70
9802;DHT22;4940;50.900;4.672;2023-06-26T13:53:19;28.20;67.20
9802;DHT22;4940;50.900;4.672;2023-06-26T13:55:46;28.20;67.50
9802;DHT22;4940;50.900;4.672;2023-06-26T14:00:41;28.00;67.30
9802;DHT22;4940;50.900;4.672;2023-06-26T14:03:10;28.00;68.00
9802;DHT22;4940;50.900;4.672;2023-06-26T14:05:38;27.90;67.80
9802;DHT22;4940;50.900;4.672;2023-06-26T14:08:08;27.90;68.10
9802;DHT22;4940;50.900;4.672;2023-06-26T14:10:36;27.90;68.00
9802;DHT22;4940;50.900;4.672;2023-06-26T14:13:04;27.80;68.30
9802;DHT22;4940;50.900;4.672;2023-06-26T14:15:33;27.80;69.30
9802;DHT22;4940;50.900;4.672;2023-06-26T14:18:01;27.80;68.40
9802;DHT22;4940;50.900;4.672;2023-06-26T14:20:30;27.70;67.90
9802;DHT22;4940;50.900;4.672;2023-06-26T14:22:58;27.70;69.50
9802;DHT22;4940;50.900;4.672;2023-06-26T14:25:27;27.70;69.70
9802;DHT22;4940;50.900;4.672;2023-06-26T14:27:55;27.70;69.40
9802;DHT22;4940;50.900;4.672;2023-06-26T14:32:50;25.20;67.20
9802;DHT22;4940;50.900;4.672;2023-06-26T14:35:18;27.70;69.30
9802;DHT22;4940;50.900;4.672;2023-06-26T14:37:45;27.80;69.10
9802;DHT22;4940;50.900;4.672;2023-06-26T14:40:13;26.80;68.20
9802;DHT22;4940;50.900;4.672;2023-06-26T14:42:41;27.50;69.30
9802;DHT22;4940;50.900;4.672;2023-06-26T14:45:11;27.60;69.80
9802;DHT22;4940;50.900;4.672;2023-06-26T14:47:38;27.70;70.10
9802;DHT22;4940;50.900;4.672;2023-06-26T14:50:07;27.70;69.70
9802;DHT22;4940;50.900;4.672;2023-06-26T14:52:35;27.70;69.80
9802;DHT22;4940;50.900;4.672;2023-06-26T14:55:02;27.70;69.20
9802;DHT22;4940;50.900;4.672;2023-06-26T14:57:29;27.70;69.30
9802;DHT22;4940;50.900;4.672;2023-06-26T14:59:58;27.70;68.80
9802;DHT22;4940;50.900;4.672;2023-06-26T15:02:25;27.60;69.10
9802;DHT22;4940;50.900;4.672;2023-06-26T15:04:52;27.60;69.00
9802;DHT22;4940;50.900;4.672;2023-06-26T15:07:20;27.60;69.60
9802;DHT22;4940;50.900;4.672;2023-06-26T15:09:47;27.50;69.70
9802;DHT22;4940;50.900;4.672;2023-06-26T15:12:14;27.50;70.10
9802;DHT22;4940;50.900;4.672;2023-06-26T15:14:42;27.50;69.40
9802;DHT22;4940;50.900;4.672;2023-06-26T15:17:10;27.50;70.10
9802;DHT22;4940;50.900;4.672;2023-06-26T15:19:38;26.20;67.90
9802;DHT22;4940;50.900;4.672;2023-06-26T15:22:05;27.50;69.30
9802;DHT22;4940;50.900;4.672;2023-06-26T15:24:32;27.30;69.60
9802;DHT22;4940;50.900;4.672;2023-06-26T15:27:00;27.30;69.70
9802;DHT22;4940;50.900;4.672;2023-06-26T15:29:27;27.20;70.20
9802;DHT22;4940;50.900;4.672;2023-06-26T15:34:23;27.10;69.70
9802;DHT22;4940;50.900;4.672;2023-06-26T15:36:50;27.10;70.00
9802;DHT22;4940;50.900;4.672;2023-06-26T15:39:18;27.10;70.00
9802;DHT22;4940;50.900;4.672;2023-06-26T15:41:45;27.00;69.40
9802;DHT22;4940;50.900;4.672;2023-06-26T15:44:12;27.00;69.80
9802;DHT22;4940;50.900;4.672;2023-06-26T15:46:40;26.70;69.80
9802;DHT22;4940;50.900;4.672;2023-06-26T15:51:36;26.90;69.90
9802;DHT22;4940;50.900;4.672;2023-06-26T15:54:03;26.80;69.50
9802;DHT22;4940;50.900;4.672;2023-06-26T15:56:31;26.80;69.60
9802;DHT22;4940;50.900;4.672;2023-06-26T15:58:58;26.80;70.20
9802;DHT22;4940;50.900;4.672;2023-06-26T16:01:25;26.80;70.20
9802;DHT22;4940;50.900;4.672;2023-06-26T16:03:53;26.80;70.80
9802;DHT22;4940;50.900;4.672;2023-06-26T16:06:20;26.60;71.00
9802;DHT22;4940;50.900;4.672;2023-06-26T16:08:48;26.70;71.00
9802;DHT22;4940;50.900;4.672;2023-06-26T16:11:18;26.60;71.00
9802;DHT22;4940;50.900;4.672;2023-06-26T16:13:45;26.50;71.10
9802;DHT22;4940;50.900;4.672;2023-06-26T16:16:13;26.60;71.00
9802;DHT22;4940;50.900;4.672;2023-06-26T16:18:41;26.50;71.50
9802;DHT22;4940;50.900;4.672;2023-06-26T16:21:08;26.50;73.00
9802;DHT22;4940;50.900;4.672;2023-06-26T16:23:35;26.50;74.00
9802;DHT22;4940;50.900;4.672;2023-06-26T16:26:04;26.50;74.70
9802;DHT22;4940;50.900;4.672;2023-06-26T16:28:31;26.40;75.70
9802;DHT22;4940;50.900;4.672;2023-06-26T16:30:59;26.50;75.80
9802;DHT22;4940;50.900;4.672;2023-06-26T16:33:26;26.40;76.30
9802;DHT22;4940;50.900;4.672;2023-06-26T16:35:53;26.70;76.70
9802;DHT22;4940;50.900;4.672;2023-06-26T16:38:21;26.40;76.90
9802;DHT22;4940;50.900;4.672;2023-06-26T16:40:48;26.40;76.90
9802;DHT22;4940;50.900;4.672;2023-06-26T16:43:16;26.40;76.90
9802;DHT22;4940;50.900;4.672;2023-06-26T16:45:44;26.20;77.30
9802;DHT22;4940;50.900;4.672;2023-06-26T16:48:11;26.30;76.90
9802;DHT22;4940;50.900;4.672;2023-06-26T16:50:39;26.20;77.70
9802;DHT22;4940;50.900;4.672;2023-06-26T16:53:07;26.20;78.60
9802;DHT22;4940;50.900;4.672;2023-06-26T16:55:34;26.10;77.30